createdAt,value
2018-08-20T00:02:05.774Z,100782.23
2018-08-20T00:04:39.607Z,100785.09
2018-08-20T00:07:08.182Z,100785.61
2018-08-20T00:09:41.959Z,100779.41
2018-08-20T00:12:10.786Z,100782.94
2018-08-20T00:14:39.328Z,100774.34
2018-08-20T00:17:08.159Z,100774.15
2018-08-20T00:19:36.700Z,100775.20
2018-08-20T00:22:06.421Z,100775.16
2018-08-20T00:24:34.998Z,100776.86
2018-08-20T00:27:03.739Z,100773.98
2018-08-20T00:29:35.687Z,100768.77
2018-08-20T00:32:05.393Z,100765.91
2018-08-20T00:34:33.973Z,100763.39
2018-08-20T00:37:02.493Z,100766.25
2018-08-20T00:39:31.329Z,100761.72
2018-08-20T00:41:59.927Z,100769.13
2018-08-20T00:44:28.510Z,100767.26
2018-08-20T00:46:57.188Z,100763.57
2018-08-20T00:49:25.983Z,100765.77
2018-08-20T00:51:54.575Z,100762.05
2018-08-20T00:54:23.287Z,100773.17
2018-08-20T00:56:52.460Z,100771.15
2018-08-20T00:59:21.099Z,100769.27
2018-08-20T01:01:49.685Z,100770.45
2018-08-20T01:04:19.269Z,100772.64
2018-08-20T01:06:47.877Z,100778.83
2018-08-20T01:09:16.563Z,100778.69
2018-08-20T01:11:45.137Z,100770.80
2018-08-20T01:14:14.011Z,100771.63
2018-08-20T01:16:42.582Z,100768.78
2018-08-20T01:19:11.221Z,100780.03
2018-08-20T01:21:39.831Z,100774.08
2018-08-20T01:24:08.710Z,100772.09
2018-08-20T01:26:37.305Z,100777.23
2018-08-20T01:29:05.822Z,100774.48
2018-08-20T01:31:34.324Z,100770.49
2018-08-20T01:34:03.933Z,100769.77
2018-08-20T01:36:32.634Z,100776.55
2018-08-20T01:39:01.289Z,100777.14
2018-08-20T01:41:30.171Z,100771.73
2018-08-20T01:43:58.723Z,100770.30
2018-08-20T01:46:27.230Z,100769.60
2018-08-20T01:48:55.915Z,100774.17
2018-08-20T01:51:24.745Z,100773.41
2018-08-20T01:53:53.623Z,100774.73
2018-08-20T01:56:22.161Z,100774.25
2018-08-20T01:58:50.979Z,100777.83
2018-08-20T02:01:19.838Z,100771.63
2018-08-20T02:03:48.388Z,100775.44
2018-08-20T02:06:16.995Z,100773.25
2018-08-20T02:08:45.759Z,100775.77
2018-08-20T02:11:14.251Z,100775.16
2018-08-20T02:13:42.808Z,100774.23
2018-08-20T02:16:11.328Z,100781.75
2018-08-20T02:18:40.199Z,100778.86
2018-08-20T02:21:08.804Z,100780.22
2018-08-20T02:23:37.334Z,100782.54
2018-08-20T02:26:06.273Z,100781.55
2018-08-20T02:28:34.873Z,100780.66
2018-08-20T02:31:03.422Z,100772.40
2018-08-20T02:33:32.047Z,100777.89
2018-08-20T02:36:02.931Z,100779.20
2018-08-20T02:38:31.683Z,100775.58
2018-08-20T02:41:00.212Z,100769.86
2018-08-20T02:43:28.997Z,100774.02
2018-08-20T02:45:57.482Z,100777.20
2018-08-20T02:48:26.165Z,100780.14
2018-08-20T02:50:54.663Z,100779.19
2018-08-20T02:53:23.596Z,100775.63
2018-08-20T02:55:52.111Z,100777.13
2018-08-20T02:58:21.420Z,100772.94
2018-08-20T03:00:50.025Z,100771.02
2018-08-20T03:03:19.063Z,100771.12
2018-08-20T03:05:47.601Z,100769.83
2018-08-20T03:08:16.138Z,100769.41
2018-08-20T03:10:44.669Z,100772.41
2018-08-20T03:13:13.180Z,100775.14
2018-08-20T03:15:41.682Z,100769.16
2018-08-20T03:18:10.999Z,100766.69
2018-08-20T03:20:39.517Z,100774.70
2018-08-20T03:23:08.114Z,100778.55
2018-08-20T03:25:36.931Z,100773.12
2018-08-20T03:28:06.690Z,100774.86
2018-08-20T03:30:35.323Z,100769.55
2018-08-20T03:33:04.417Z,100770.12
2018-08-20T03:35:32.958Z,100765.16
2018-08-20T03:38:01.509Z,100765.73
2018-08-20T03:40:30.388Z,100766.09
2018-08-20T03:42:58.932Z,100760.41
2018-08-20T03:45:27.423Z,100757.23
2018-08-20T03:47:56.212Z,100757.04
2018-08-20T03:50:24.815Z,100763.38
2018-08-20T03:52:53.351Z,100760.37
2018-08-20T03:55:21.964Z,100756.39
2018-08-20T03:57:50.556Z,100759.39
2018-08-20T04:00:23.292Z,100760.66
2018-08-20T04:02:53.444Z,100762.16
2018-08-20T04:05:22.055Z,100764.00
2018-08-20T04:07:50.595Z,100777.25
2018-08-20T04:10:20.143Z,100768.98
2018-08-20T04:12:48.681Z,100771.50
2018-08-20T04:15:17.229Z,100774.39
2018-08-20T04:17:45.770Z,100779.14
2018-08-20T04:20:14.593Z,100770.20
2018-08-20T04:22:43.089Z,100773.45
2018-08-20T04:25:22.661Z,100774.81
2018-08-20T04:27:51.328Z,100774.70
2018-08-20T04:30:20.299Z,100768.94
2018-08-20T04:32:48.861Z,100772.81
2018-08-20T04:35:20.097Z,100768.49
2018-08-20T04:37:48.639Z,100766.70
2018-08-20T04:40:18.147Z,100764.70
2018-08-20T04:42:46.696Z,100758.28
2018-08-20T04:45:15.335Z,100765.87
2018-08-20T04:47:43.925Z,100768.94
2018-08-20T04:50:12.925Z,100771.40
2018-08-20T04:52:41.778Z,100769.63
2018-08-20T04:55:10.351Z,100774.50
2018-08-20T04:57:39.174Z,100775.66
2018-08-20T05:00:09.707Z,100774.88
2018-08-20T05:02:38.938Z,100775.60
2018-08-20T05:05:07.624Z,100780.19
2018-08-20T05:07:36.292Z,100782.85
2018-08-20T05:10:05.815Z,100790.31
2018-08-20T05:12:34.677Z,100795.39
2018-08-20T05:15:03.829Z,100795.39
2018-08-20T05:17:32.795Z,100798.61
2018-08-20T05:20:02.367Z,100795.88
2018-08-20T05:22:31.529Z,100799.39
2018-08-20T05:25:00.619Z,100800.19
2018-08-20T05:27:29.578Z,100795.59
2018-08-20T05:29:58.627Z,100798.97
2018-08-20T05:32:28.816Z,100796.09
2018-08-20T05:34:58.119Z,100795.03
2018-08-20T05:37:27.650Z,100798.85
2018-08-20T05:39:57.647Z,100798.79
2018-08-20T05:42:26.587Z,100794.05
2018-08-20T05:44:56.621Z,100795.08
2018-08-20T05:47:25.828Z,100803.41
2018-08-20T05:49:54.479Z,100803.11
2018-08-20T05:52:23.522Z,100804.90
2018-08-20T05:54:52.219Z,100814.34
2018-08-20T05:57:20.873Z,100817.09
2018-08-20T05:59:49.996Z,100819.05
2018-08-20T06:02:19.263Z,100820.97
2018-08-20T06:04:47.871Z,100818.64
2018-08-20T06:07:17.796Z,100824.60
2018-08-20T06:09:53.925Z,100817.09
2018-08-20T06:12:23.012Z,100823.02
2018-08-20T06:14:52.253Z,100826.71
2018-08-20T06:17:20.900Z,100823.25
2018-08-20T06:19:49.490Z,100828.92
2018-08-20T06:22:18.614Z,100830.75
2018-08-20T06:24:47.172Z,100836.01
2018-08-20T06:27:16.322Z,100836.59
2018-08-20T06:29:45.149Z,100842.78
2018-08-20T06:32:13.841Z,100843.30
2018-08-20T06:34:42.360Z,100842.67
2018-08-20T06:37:11.341Z,100841.24
2018-08-20T06:39:39.895Z,100840.68
2018-08-20T06:42:08.568Z,100841.91
2018-08-20T06:44:37.653Z,100842.67
2018-08-20T06:47:06.448Z,100845.93
2018-08-20T06:49:34.964Z,100853.69
2018-08-20T06:52:04.624Z,100852.12
2018-08-20T06:54:39.646Z,100856.84
2018-08-20T06:57:08.265Z,100859.51
2018-08-20T06:59:36.825Z,100857.81
2018-08-20T07:02:06.411Z,100859.97
2018-08-20T07:04:35.203Z,100864.02
2018-08-20T07:07:03.793Z,100865.97
2018-08-20T07:09:32.344Z,100868.82
2018-08-20T07:12:00.885Z,100865.47
2018-08-20T07:14:30.089Z,100865.75
2018-08-20T07:16:59.993Z,100867.56
2018-08-20T07:19:28.624Z,100871.80
2018-08-20T07:21:57.208Z,100866.02
2018-08-20T07:24:26.145Z,100866.31
2018-08-20T07:26:54.789Z,100863.76
2018-08-20T07:29:41.462Z,100876.02
2018-08-20T07:32:11.644Z,100875.88
2018-08-20T07:34:42.025Z,100865.10
2018-08-20T07:37:12.277Z,100867.02
2018-08-20T07:39:43.430Z,100862.30
2018-08-20T07:42:12.335Z,100865.05
2018-08-20T07:44:46.163Z,100869.55
2018-08-20T07:47:20.015Z,100864.36
2018-08-20T07:49:48.771Z,100867.28
2018-08-20T07:52:17.478Z,100867.30
2018-08-20T07:54:46.319Z,100871.36
2018-08-20T07:57:14.876Z,100871.04
2018-08-20T07:59:43.468Z,100863.38
2018-08-20T08:02:12.414Z,100865.41
2018-08-20T08:04:41.000Z,100871.06
2018-08-20T08:07:09.992Z,100867.58
2018-08-20T08:09:38.903Z,100871.63
2018-08-20T08:12:09.381Z,100874.77
2018-08-20T08:14:37.973Z,100874.91
2018-08-20T08:17:07.064Z,100869.03
2018-08-20T08:19:35.719Z,100867.45
2018-08-20T08:22:04.886Z,100867.78
2018-08-20T08:24:33.759Z,100866.79
2018-08-20T08:27:02.389Z,100862.59
2018-08-20T08:29:31.024Z,100862.27
2018-08-20T08:32:00.162Z,100864.31
2018-08-20T08:34:28.829Z,100873.02
2018-08-20T08:36:57.404Z,100867.84
2018-08-20T08:39:26.317Z,100860.10
2018-08-20T08:41:54.856Z,100855.11
2018-08-20T08:44:23.470Z,100851.91
2018-08-20T08:46:52.295Z,100853.25
2018-08-20T08:49:20.814Z,100846.01
2018-08-20T08:51:49.300Z,100850.05
2018-08-20T08:54:18.362Z,100855.80
2018-08-20T08:56:46.894Z,100850.75
2018-08-20T08:59:15.464Z,100852.26
2018-08-20T09:01:44.351Z,100847.34
2018-08-20T09:04:12.973Z,100848.84
2018-08-20T09:06:41.587Z,100849.19
2018-08-20T09:09:10.404Z,100852.20
2018-08-20T09:11:39.146Z,100851.66
2018-08-20T09:14:07.817Z,100851.84
2018-08-20T09:16:36.730Z,100848.00
2018-08-20T09:19:05.573Z,100842.16
2018-08-20T09:21:34.631Z,100849.69
2018-08-20T09:24:04.196Z,100843.28
2018-08-20T09:26:32.973Z,100845.31
2018-08-20T09:29:01.807Z,100838.09
2018-08-20T09:31:30.723Z,100846.64
2018-08-20T09:33:59.671Z,100837.48
2018-08-20T09:36:28.656Z,100843.45
2018-08-20T09:38:57.595Z,100841.59
2018-08-20T09:41:26.398Z,100838.18
2018-08-20T09:43:56.493Z,100841.38
2018-08-20T09:46:25.532Z,100841.45
2018-08-20T09:51:31.847Z,100826.81
2018-08-20T09:54:00.743Z,100832.80
2018-08-20T09:56:29.577Z,100828.85
2018-08-20T09:58:58.471Z,100830.75
2018-08-20T10:01:27.179Z,100824.34
2018-08-20T10:03:56.521Z,100819.55
2018-08-20T10:06:25.304Z,100810.98
2018-08-20T10:08:53.845Z,100805.11
2018-08-20T10:11:22.456Z,100813.27
2018-08-20T10:13:51.591Z,100820.44
2018-08-20T10:16:20.184Z,100816.45
2018-08-20T10:18:49.062Z,100810.74
2018-08-20T10:21:19.648Z,100812.70
2018-08-20T10:23:48.199Z,100810.65
2018-08-20T10:26:16.921Z,100812.70
2018-08-20T10:28:45.896Z,100812.91
2018-08-20T10:31:16.388Z,100811.75
2018-08-20T10:33:45.107Z,100799.23
2018-08-20T10:36:13.979Z,100804.69
2018-08-20T10:38:42.866Z,100806.73
2018-08-20T10:41:11.663Z,100813.03
2018-08-20T10:43:40.654Z,100807.63
2018-08-20T10:46:14.682Z,100813.64
2018-08-20T10:48:43.291Z,100814.33
2018-08-20T10:51:11.945Z,100807.39
2018-08-20T10:53:41.062Z,100804.41
2018-08-20T10:56:09.644Z,100805.86
2018-08-20T10:58:38.299Z,100805.86
2018-08-20T11:01:07.825Z,100801.28
2018-08-20T11:03:36.483Z,100813.11
2018-08-20T11:06:05.912Z,100807.86
2018-08-20T11:08:34.771Z,100803.36
2018-08-20T11:11:03.415Z,100805.77
2018-08-20T11:13:32.442Z,100810.86
2018-08-20T11:16:01.348Z,100801.48
2018-08-20T11:18:30.292Z,100805.88
2018-08-20T11:20:58.779Z,100804.45
2018-08-20T11:23:27.560Z,100803.16
2018-08-20T11:25:56.219Z,100807.80
2018-08-20T11:28:24.803Z,100805.95
2018-08-20T11:30:54.657Z,100805.19
2018-08-20T11:33:23.307Z,100803.03
2018-08-20T11:35:51.856Z,100798.64
2018-08-20T11:38:20.398Z,100796.02
2018-08-20T11:40:48.991Z,100797.29
2018-08-20T11:43:17.859Z,100803.25
2018-08-20T11:45:46.528Z,100803.97
2018-08-20T11:48:15.484Z,100805.70
2018-08-20T11:50:44.187Z,100804.98
2018-08-20T11:53:12.791Z,100801.58
2018-08-20T11:55:41.685Z,100803.28
2018-08-20T11:58:10.296Z,100800.22
2018-08-20T12:00:39.069Z,100795.39
2018-08-20T12:03:08.027Z,100801.48
2018-08-20T12:05:36.653Z,100801.41
2018-08-20T12:08:06.508Z,100800.24
2018-08-20T12:10:35.371Z,100804.10
2018-08-20T12:13:03.974Z,100797.55
2018-08-20T12:15:32.508Z,100788.83
2018-08-20T12:18:03.150Z,100792.93
2018-08-20T12:20:31.687Z,100789.57
2018-08-20T12:23:00.255Z,100782.67
2018-08-20T12:25:29.280Z,100781.25
2018-08-20T12:27:57.862Z,100771.88
2018-08-20T12:30:26.532Z,100776.56
2018-08-20T12:32:55.324Z,100776.15
2018-08-20T12:35:23.872Z,100779.45
2018-08-20T12:37:52.456Z,100780.64
2018-08-20T12:40:21.723Z,100780.06
2018-08-20T12:42:50.279Z,100778.81
2018-08-20T12:45:18.878Z,100773.89
2018-08-20T12:47:47.805Z,100773.08
2018-08-20T12:50:16.655Z,100780.03
2018-08-20T12:52:45.428Z,100772.44
2018-08-20T12:55:14.279Z,100770.16
2018-08-20T12:57:43.011Z,100774.70
2018-08-20T13:00:11.611Z,100770.81
2018-08-20T13:02:40.252Z,100775.59
2018-08-20T13:05:08.868Z,100771.60
2018-08-20T13:07:37.897Z,100777.89
2018-08-20T13:10:06.803Z,100775.92
2018-08-20T13:12:35.381Z,100775.70
2018-08-20T13:15:04.073Z,100770.61
2018-08-20T13:17:32.769Z,100769.30
2018-08-20T13:20:02.269Z,100766.87
2018-08-20T13:22:30.857Z,100763.16
2018-08-20T13:24:59.476Z,100758.33
2018-08-20T13:27:28.367Z,100761.29
2018-08-20T13:29:56.982Z,100757.00
2018-08-20T13:32:25.726Z,100762.36
2018-08-20T13:34:54.581Z,100757.67
2018-08-20T13:37:23.186Z,100757.61
2018-08-20T13:39:51.706Z,100757.66
2018-08-20T13:42:20.597Z,100758.89
2018-08-20T13:44:49.211Z,100749.60
2018-08-20T13:47:17.876Z,100752.00
2018-08-20T13:49:47.094Z,100745.00
2018-08-20T13:52:16.125Z,100736.86
2018-08-20T13:54:44.780Z,100735.81
2018-08-20T13:57:13.580Z,100733.36
2018-08-20T13:59:42.194Z,100743.17
2018-08-20T14:02:10.746Z,100740.30
2018-08-20T14:04:39.707Z,100731.02
2018-08-20T14:07:08.218Z,100731.02
2018-08-20T14:09:36.740Z,100730.19
2018-08-20T14:12:05.903Z,100728.14
2018-08-20T14:14:34.441Z,100729.60
2018-08-20T14:17:03.516Z,100733.14
2018-08-20T14:19:32.454Z,100728.84
2018-08-20T14:22:01.051Z,100720.25
2018-08-20T14:24:29.722Z,100717.94
2018-08-20T14:26:58.495Z,100719.50
2018-08-20T14:29:27.067Z,100720.72
2018-08-20T14:31:55.915Z,100718.53
2018-08-20T14:34:24.455Z,100714.23
2018-08-20T14:36:53.155Z,100718.45
2018-08-20T14:39:21.691Z,100717.16
2018-08-20T14:41:50.342Z,100705.27
2018-08-20T14:44:19.499Z,100712.28
2018-08-20T14:46:48.225Z,100707.27
2018-08-20T14:49:16.775Z,100702.97
2018-08-20T14:51:45.471Z,100702.69
2018-08-20T14:54:14.155Z,100705.05
2018-08-20T14:56:43.044Z,100701.76
2018-08-20T14:59:11.707Z,100690.97
2018-08-20T15:01:40.258Z,100691.41
2018-08-20T15:06:59.243Z,100690.28
2018-08-20T15:09:28.961Z,100690.25
2018-08-20T15:11:57.848Z,100691.80
2018-08-20T15:14:26.446Z,100692.05
2018-08-20T15:16:55.996Z,100693.21
2018-08-20T15:19:24.565Z,100687.95
2018-08-20T15:21:53.108Z,100682.68
2018-08-20T15:24:21.931Z,100680.23
2018-08-20T15:26:50.908Z,100688.21
2018-08-20T15:29:20.018Z,100687.08
2018-08-20T15:31:48.997Z,100690.73
2018-08-20T15:34:18.525Z,100690.33
2018-08-20T15:36:47.077Z,100695.33
2018-08-20T15:39:15.691Z,100691.95
2018-08-20T15:41:44.195Z,100685.23
2018-08-20T15:44:13.040Z,100686.52
2018-08-20T15:46:41.651Z,100686.81
2018-08-20T15:49:10.219Z,100687.25
2018-08-20T15:51:38.802Z,100683.80
2018-08-20T15:54:07.838Z,100681.81
2018-08-20T15:56:36.428Z,100681.67
2018-08-20T15:59:05.071Z,100684.44
2018-08-20T16:01:34.094Z,100675.41
2018-08-20T16:04:04.444Z,100673.48
2018-08-20T16:06:33.031Z,100674.23
2018-08-20T16:09:01.901Z,100670.83
2018-08-20T16:11:30.477Z,100671.97
2018-08-20T16:13:59.328Z,100669.86
2018-08-20T16:16:28.259Z,100672.27
2018-08-20T16:18:57.163Z,100671.52
2018-08-20T16:21:25.711Z,100671.05
2018-08-20T16:23:54.725Z,100670.14
2018-08-20T16:26:23.298Z,100670.41
2018-08-20T16:28:51.881Z,100668.32
2018-08-20T16:31:20.730Z,100667.78
2018-08-20T16:33:49.983Z,100679.25
2018-08-20T16:36:19.152Z,100668.33
2018-08-20T16:38:48.306Z,100671.27
2018-08-20T16:41:16.867Z,100667.42
2018-08-20T16:43:45.455Z,100671.39
2018-08-20T16:46:14.310Z,100666.94
2018-08-20T16:48:43.008Z,100660.87
2018-08-20T16:51:11.673Z,100656.38
2018-08-20T16:53:40.912Z,100663.78
2018-08-20T16:56:10.020Z,100654.61
2018-08-20T16:58:38.653Z,100657.00
2018-08-20T17:01:16.730Z,100660.16
2018-08-20T17:03:45.267Z,100656.50
2018-08-20T17:06:14.365Z,100657.08
2018-08-20T17:08:43.955Z,100655.33
2018-08-20T17:11:13.008Z,100651.47
2018-08-20T17:13:42.089Z,100652.16
2018-08-20T17:16:12.696Z,100652.38
2018-08-20T17:18:41.399Z,100653.14
2018-08-20T17:21:10.460Z,100659.16
2018-08-20T17:23:39.154Z,100658.66
2018-08-20T17:26:08.455Z,100658.04
2018-08-20T17:28:37.056Z,100659.88
2018-08-20T17:31:12.860Z,100661.89
2018-08-20T17:33:41.895Z,100657.06
2018-08-20T17:36:10.414Z,100661.83
2018-08-20T17:38:39.067Z,100666.08
2018-08-20T17:41:09.070Z,100666.73
2018-08-20T17:43:37.708Z,100671.13
2018-08-20T17:46:06.348Z,100675.74
2018-08-20T17:48:35.229Z,100674.21
2018-08-20T17:51:03.910Z,100674.21
2018-08-20T17:53:43.430Z,100676.59
2018-08-20T17:56:12.753Z,100670.19
2018-08-20T17:58:41.288Z,100678.16
2018-08-20T18:01:09.957Z,100678.24
2018-08-20T18:03:38.548Z,100677.13
2018-08-20T18:06:08.467Z,100671.88
2018-08-20T18:08:37.121Z,100671.81
2018-08-20T18:11:06.904Z,100673.12
2018-08-20T18:13:47.904Z,100682.05
2018-08-20T18:16:17.724Z,100679.76
2018-08-20T18:18:50.686Z,100682.91
2018-08-20T18:21:20.076Z,100688.97
2018-08-20T18:23:50.696Z,100684.80
2018-08-20T18:26:30.067Z,100688.72
2018-08-20T18:28:58.707Z,100687.17
2018-08-20T18:31:28.247Z,100688.72
2018-08-20T18:33:56.925Z,100691.30
2018-08-20T18:36:26.994Z,100688.45
2018-08-20T18:38:59.555Z,100688.86
2018-08-20T18:41:48.666Z,100691.63
2018-08-20T18:44:17.527Z,100691.13
2018-08-20T18:46:46.061Z,100700.05
2018-08-20T18:49:14.855Z,100702.95
2018-08-20T18:51:43.766Z,100706.08
2018-08-20T18:54:12.420Z,100709.28
2018-08-20T18:56:41.158Z,100715.39
2018-08-20T18:59:10.084Z,100714.91
2018-08-20T19:01:38.795Z,100713.61
2018-08-20T19:04:07.475Z,100715.67
2018-08-20T19:06:39.006Z,100723.59
2018-08-20T19:09:10.904Z,100722.65
2018-08-20T19:11:39.487Z,100725.20
2018-08-20T19:14:12.692Z,100729.60
2018-08-20T19:16:41.331Z,100728.95
2018-08-20T19:19:09.898Z,100731.12
2018-08-20T19:21:41.295Z,100736.07
2018-08-20T19:24:10.935Z,100727.70
2018-08-20T19:26:39.560Z,100736.52
2018-08-20T19:29:19.509Z,100739.43
2018-08-20T19:31:48.249Z,100741.95
2018-08-20T19:34:17.417Z,100743.35
2018-08-20T19:36:45.994Z,100746.61
2018-08-20T19:39:14.511Z,100757.61
2018-08-20T19:41:43.399Z,100758.85
2018-08-20T19:44:11.960Z,100757.73
2018-08-20T19:46:40.516Z,100757.06
2018-08-20T19:49:10.680Z,100763.58
2018-08-20T19:51:41.069Z,100756.22
2018-08-20T19:54:11.578Z,100765.13
2018-08-20T19:56:40.151Z,100768.68
2018-08-20T19:59:09.068Z,100768.02
2018-08-20T20:01:38.035Z,100776.81
2018-08-20T20:04:06.590Z,100774.76
2018-08-20T20:06:35.176Z,100768.86
2018-08-20T20:09:08.150Z,100769.95
2018-08-20T20:11:45.666Z,100781.56
2018-08-20T20:14:14.563Z,100775.92
2018-08-20T20:16:48.375Z,100777.45
2018-08-20T20:19:17.014Z,100785.41
2018-08-20T20:21:45.572Z,100790.97
2018-08-20T20:24:14.335Z,100793.19
2018-08-20T20:26:43.274Z,100790.33
2018-08-20T20:29:12.166Z,100791.37
2018-08-20T20:31:41.830Z,100791.50
2018-08-20T20:34:10.850Z,100797.41
2018-08-20T20:36:39.571Z,100795.06
2018-08-20T20:39:10.623Z,100793.02
2018-08-20T20:41:39.262Z,100802.16
2018-08-20T20:44:08.450Z,100802.48
2018-08-20T20:46:37.387Z,100803.72
2018-08-20T20:49:06.024Z,100805.06
2018-08-20T20:51:34.583Z,100810.00
2018-08-20T20:54:04.254Z,100814.02
2018-08-20T20:56:32.798Z,100817.41
2018-08-20T20:59:01.400Z,100816.91
2018-08-20T21:01:30.245Z,100819.80
2018-08-20T21:03:58.879Z,100823.34
2018-08-20T21:06:27.419Z,100826.20
2018-08-20T21:08:58.265Z,100828.77
2018-08-20T21:11:26.765Z,100829.43
2018-08-20T21:13:55.923Z,100826.90
2018-08-20T21:16:25.568Z,100828.43
2018-08-20T21:18:55.628Z,100832.16
2018-08-20T21:21:24.772Z,100836.57
2018-08-20T21:23:53.677Z,100837.05
2018-08-20T21:26:22.218Z,100841.77
2018-08-20T21:28:51.763Z,100844.28
2018-08-20T21:31:21.740Z,100845.98
2018-08-20T21:34:03.537Z,100844.28
2018-08-20T21:36:32.360Z,100854.58
2018-08-20T21:39:00.910Z,100848.00
2018-08-20T21:41:30.059Z,100855.24
2018-08-20T21:43:58.892Z,100853.23
2018-08-20T21:46:27.413Z,100850.73
2018-08-20T21:48:55.992Z,100859.15
2018-08-20T21:51:26.556Z,100865.20
2018-08-20T21:53:55.284Z,100863.34
2018-08-20T21:56:23.975Z,100864.70
2018-08-20T21:58:52.832Z,100866.72
2018-08-20T22:01:21.478Z,100866.88
2018-08-20T22:03:50.038Z,100867.89
2018-08-20T22:06:19.129Z,100869.58
2018-08-20T22:08:47.728Z,100866.22
2018-08-20T22:11:16.222Z,100869.04
2018-08-20T22:13:44.976Z,100873.45
2018-08-20T22:16:19.805Z,100872.42
2018-08-20T22:18:53.531Z,100868.22
2018-08-20T22:21:22.311Z,100869.24
2018-08-20T22:23:50.936Z,100871.93
2018-08-20T22:26:20.769Z,100878.84
2018-08-20T22:28:51.066Z,100877.14
2018-08-20T22:31:19.897Z,100878.66
2018-08-20T22:33:55.055Z,100880.50
2018-08-20T22:36:24.132Z,100885.40
2018-08-20T22:38:53.895Z,100883.72
2018-08-20T22:41:23.616Z,100884.55
2018-08-20T22:43:52.239Z,100885.07
2018-08-20T22:47:50.783Z,100889.62
2018-08-20T22:50:19.583Z,100893.98
2018-08-20T22:52:49.547Z,100889.95
2018-08-20T22:55:19.226Z,100892.14
2018-08-20T22:57:59.468Z,100893.64
2018-08-20T23:00:28.450Z,100887.26
2018-08-20T23:02:57.902Z,100889.10
2018-08-20T23:05:29.804Z,100887.09
2018-08-20T23:08:07.727Z,100891.97
2018-08-20T23:10:40.236Z,100885.24
2018-08-20T23:13:08.751Z,100889.60
2018-08-20T23:15:37.300Z,100889.28
2018-08-20T23:18:06.319Z,100886.77
2018-08-20T23:20:34.850Z,100890.80
2018-08-20T23:23:03.411Z,100888.78
2018-08-20T23:25:32.264Z,100889.78
2018-08-20T23:28:00.822Z,100894.67
2018-08-20T23:30:29.412Z,100889.46
2018-08-20T23:32:58.387Z,100894.00
2018-08-20T23:35:26.912Z,100898.53
2018-08-20T23:37:55.420Z,100896.87
2018-08-20T23:40:24.167Z,100896.34
2018-08-20T23:42:52.668Z,100903.74
2018-08-20T23:45:21.219Z,100901.23
2018-08-20T23:47:49.733Z,100900.38
2018-08-20T23:50:19.055Z,100896.34
2018-08-20T23:52:47.651Z,100899.20
2018-08-20T23:55:16.135Z,100896.16
2018-08-20T23:57:44.653Z,100896.34
